Time;durP1;ratioP1;P1;durP2;ratioP2;P2;SDS_P1;SDS_P2;PMS_P1;PMS_P2;Temp;Humidity;BMP_temperature;BMP_pressure;BME280_temperature;BME280_humidity;BME280_pressure;Samples;Min_cycle;Max_cycle;Signal;HPM_P1;HPM_P2
2022/11/29 00:01:04;;;;;;;16.80;11.73;;;5.30;99.90;;;;;;6301980;22;20458;-77
2022/11/29 00:03:31;;;;;;;17.00;12.27;;;5.60;99.90;;;;;;6301652;22;20792;-76
2022/11/29 00:06:07;;;;;;;15.67;11.00;;;5.40;99.90;;;;;;6301924;22;20443;-77
2022/11/29 00:08:34;;;;;;;12.33;10.93;;;5.50;99.90;;;;;;6302442;22;20441;-77
2022/11/29 00:11:05;;;;;;;14.40;10.43;;;5.70;99.90;;;;;;6302706;22;20424;-76
2022/11/29 00:13:32;;;;;;;16.47;10.80;;;5.60;99.90;;;;;;6301971;22;20508;-77
2022/11/29 00:16:03;;;;;;;15.70;10.90;;;5.50;99.90;;;;;;6307139;22;20401;-79
2022/11/29 00:21:12;;;;;;;14.70;12.37;;;5.30;99.90;;;;;;6301446;22;20401;-77
2022/11/29 00:23:39;;;;;;;15.60;11.77;;;5.60;99.90;;;;;;6301542;22;20483;-80
2022/11/29 00:26:06;;;;;;;20.40;11.80;;;5.40;99.90;;;;;;6302133;22;20409;-79
2022/11/29 00:28:34;;;;;;;14.13;10.50;;;5.10;99.90;;;;;;6302286;22;20401;-79
2022/11/29 00:31:01;;;;;;;16.50;10.80;;;5.30;99.90;;;;;;6301295;22;20423;-80
2022/11/29 00:33:28;;;;;;;13.00;11.40;;;5.20;99.90;;;;;;6301769;22;20731;-78
2022/11/29 00:35:55;;;;;;;18.63;12.20;;;5.40;99.90;;;;;;6302399;22;20921;-77
2022/11/29 00:38:23;;;;;;;13.37;10.97;;;5.30;99.90;;;;;;6301545;22;20447;-77
2022/11/29 00:41:09;;;;;;;11.47;8.50;;;5.40;99.90;;;;;;6301908;22;20429;-77
2022/11/29 00:43:36;;;;;;;15.10;10.30;;;5.20;99.90;;;;;;6308592;22;20466;-77
2022/11/29 00:46:03;;;;;;;13.27;10.43;;;5.10;99.90;;;;;;6301724;22;20463;-79
2022/11/29 00:48:33;;;;;;;12.40;10.20;;;5.30;99.90;;;;;;6301477;22;21130;-79
2022/11/29 00:51:04;;;;;;;13.17;9.67;;;5.70;99.90;;;;;;6301275;22;20409;-80
2022/11/29 00:53:33;;;;;;;13.73;10.47;;;5.20;99.90;;;;;;6302312;22;20483;-77
2022/11/29 00:56:00;;;;;;;13.30;8.90;;;5.10;99.90;;;;;;6301812;22;20408;-81
2022/11/29 00:58:27;;;;;;;13.97;9.00;;;5.00;99.90;;;;;;6301310;22;20437;-79
2022/11/29 01:00:57;;;;;;;12.70;9.20;;;5.10;99.90;;;;;;6301901;22;20412;-80
2022/11/29 01:03:24;;;;;;;12.77;9.23;;;5.10;99.90;;;;;;6302016;22;20385;-80
2022/11/29 01:05:52;;;;;;;16.20;9.37;;;5.10;99.90;;;;;;6301900;22;20435;-76
2022/11/29 01:08:19;;;;;;;12.60;9.40;;;5.10;99.90;;;;;;6301948;22;20408;-76
2022/11/29 01:10:53;;;;;;;12.17;9.50;;;5.60;99.90;;;;;;6301615;22;20456;-79
2022/11/29 01:13:20;;;;;;;10.17;9.17;;;5.30;99.90;;;;;;6302443;22;20396;-78
2022/11/29 01:15:56;;;;;;;11.20;9.87;;;5.10;99.90;;;;;;6301252;22;20448;-78
2022/11/29 01:18:23;;;;;;;14.83;10.23;;;5.50;99.90;;;;;;6301763;22;20443;-77
2022/11/29 01:20:56;;;;;;;16.33;10.67;;;5.20;99.90;;;;;;6301732;22;20746;-80
2022/11/29 01:23:23;;;;;;;14.23;10.70;;;5.20;99.90;;;;;;6301153;22;20497;-78
2022/11/29 01:25:58;;;;;;;10.10;8.10;;;5.10;99.90;;;;;;6302401;22;20768;-77
2022/11/29 01:28:25;;;;;;;10.10;8.20;;;5.10;99.90;;;;;;6302034;22;20385;-79
2022/11/29 01:30:52;;;;;;;12.80;8.80;;;5.90;99.90;;;;;;6302106;22;20462;-77
2022/11/29 01:33:25;;;;;;;12.73;9.50;;;5.50;99.90;;;;;;6301507;22;20491;-78
2022/11/29 01:35:54;;;;;;;12.00;9.43;;;5.70;99.90;;;;;;6301651;22;20424;-76
2022/11/29 01:38:22;;;;;;;11.80;9.43;;;5.10;99.90;;;;;;6301438;22;20444;-79
2022/11/29 01:41:00;;;;;;;10.90;9.27;;;5.10;99.90;;;;;;6302315;22;20760;-78
2022/11/29 01:43:28;;;;;;;11.03;8.10;;;;;;;;;;6302120;22;20392;-78
2022/11/29 01:45:55;;;;;;;11.40;9.47;;;4.50;99.90;;;;;;6302007;22;20401;-78
2022/11/29 01:48:27;;;;;;;10.83;8.70;;;5.30;99.90;;;;;;6301330;22;20400;-77
2022/11/29 01:50:58;;;;;;;12.43;7.87;;;5.40;99.90;;;;;;6300866;22;20409;-78
2022/11/29 01:53:25;;;;;;;12.47;8.87;;;5.50;99.90;;;;;;6301479;22;20469;-77
2022/11/29 01:55:58;;;;;;;9.97;8.97;;;5.60;99.90;;;;;;6301655;22;20436;-76
2022/11/29 01:58:26;;;;;;;13.70;7.97;;;5.80;99.90;;;;;;6301774;22;20746;-78
2022/11/29 02:00:53;;;;;;;10.70;8.50;;;5.40;99.90;;;;;;6301515;22;20708;-76
2022/11/29 02:03:20;;;;;;;12.27;8.50;;;5.40;99.90;;;;;;6301618;22;20409;-76
2022/11/29 02:05:53;;;;;;;11.07;8.37;;;5.60;99.90;;;;;;6301870;22;20455;-76
2022/11/29 02:08:27;;;;;;;10.87;8.27;;;5.60;99.90;;;;;;6301459;22;20417;-75
2022/11/29 02:11:23;;;;;;;10.50;7.80;;;5.80;99.90;;;;;;6300919;22;20925;-78
2022/11/29 02:14:00;;;;;;;11.73;7.90;;;6.80;99.90;;;;;;6300943;22;20424;-79
2022/11/29 02:16:34;;;;;;;10.30;8.10;;;5.70;99.90;;;;;;6301450;22;20912;-77
2022/11/29 02:19:26;;;;;;;12.93;7.03;;;6.10;99.90;;;;;;6301583;22;20460;-79
2022/11/29 02:21:58;;;;;;;11.87;8.30;;;6.00;99.90;;;;;;6301706;22;20432;-79
2022/11/29 02:24:49;;;;;;;11.37;8.43;;;5.70;99.90;;;;;;6300909;22;20432;-80
2022/11/29 02:27:44;;;;;;;10.63;8.50;;;5.60;99.90;;;;;;6300908;22;20397;-78
2022/11/29 02:30:31;;;;;;;11.67;9.43;;;5.40;99.90;;;;;;6301058;22;21164;-77
2022/11/29 02:33:29;;;;;;;10.97;8.63;;;5.40;99.90;;;;;;6301884;22;20421;-77
2022/11/29 02:36:11;;;;;;;10.00;7.30;;;5.40;99.90;;;;;;6284716;22;20799;-77
2022/11/29 02:39:16;;;;;;;10.37;7.37;;;5.40;99.90;;;;;;6301991;22;20483;-80
2022/11/29 02:42:13;;;;;;;12.73;7.77;;;5.40;99.90;;;;;;6228522;22;20443;-77
2022/11/29 02:45:05;;;;;;;9.40;7.60;;;5.30;99.90;;;;;;6300718;22;20384;-76
2022/11/29 02:47:42;;;;;;;11.13;8.20;;;5.50;99.90;;;;;;6301303;22;20417;-79
2022/11/29 02:50:19;;;;;;;11.63;7.70;;;5.70;99.90;;;;;;6301121;22;20385;-79
2022/11/29 02:52:59;;;;;;;11.83;9.33;;;5.50;99.90;;;;;;6301668;22;20431;-78
2022/11/29 02:55:33;;;;;;;10.27;7.43;;;5.50;99.90;;;;;;6305927;22;20396;-76
2022/11/29 02:58:21;;;;;;;14.67;9.63;;;5.30;99.90;;;;;;6311615;22;20396;-78
2022/11/29 03:01:10;;;;;;;11.03;9.30;;;5.30;99.90;;;;;;6304042;22;20393;-79
2022/11/29 03:03:43;;;;;;;12.23;8.67;;;5.50;99.90;;;;;;6298092;22;20447;-76
2022/11/29 03:06:21;;;;;;;11.83;9.53;;;5.30;99.90;;;;;;6302417;22;20420;-78
2022/11/29 03:09:07;;;;;;;14.73;10.30;;;5.30;99.90;;;;;;6303402;22;20437;-76
2022/11/29 03:11:45;;;;;;;13.63;9.47;;;5.20;99.90;;;;;;6303306;22;20397;-76
2022/11/29 03:14:19;;;;;;;12.60;8.90;;;5.40;99.90;;;;;;6302806;22;20425;-78
2022/11/29 03:16:57;;;;;;;10.67;8.90;;;5.50;99.90;;;;;;6302881;22;20759;-77
2022/11/29 03:19:37;;;;;;;11.90;10.50;;;5.60;99.90;;;;;;6303223;22;20477;-77
2022/11/29 03:22:12;;;;;;;13.90;10.50;;;5.20;99.90;;;;;;6303166;22;20763;-76
2022/11/29 03:24:47;;;;;;;10.33;9.10;;;5.30;99.90;;;;;;6302464;22;20482;-76
2022/11/29 03:27:23;;;;;;;11.20;8.17;;;5.30;99.90;;;;;;6302996;22;20427;-76
2022/11/29 03:29:56;;;;;;;11.50;8.57;;;5.60;99.90;;;;;;6302797;22;20388;-78
2022/11/29 03:32:30;;;;;;;10.70;8.00;;;5.30;99.90;;;;;;6303303;22;20389;-77
2022/11/29 03:35:06;;;;;;;11.90;8.53;;;5.30;99.90;;;;;;6302869;22;20400;-78
2022/11/29 03:37:43;;;;;;;9.40;8.20;;;5.80;99.90;;;;;;6303092;22;20393;-77
2022/11/29 03:40:14;;;;;;;9.70;8.20;;;5.50;99.90;;;;;;6301959;22;21255;-77
2022/11/29 03:42:49;;;;;;;11.17;7.73;;;5.50;99.90;;;;;;6302592;22;20458;-77
2022/11/29 03:45:22;;;;;;;9.30;8.20;;;5.90;99.90;;;;;;6302873;22;20389;-77
2022/11/29 03:47:56;;;;;;;12.50;9.23;;;5.60;99.90;;;;;;6302183;22;20427;-77
2022/11/29 03:50:27;;;;;;;10.40;8.67;;;5.60;99.90;;;;;;6302598;22;20392;-77
2022/11/29 03:53:04;;;;;;;12.23;8.10;;;5.50;99.90;;;;;;6302708;22;20953;-76
2022/11/29 03:55:46;;;;;;;12.80;7.80;;;5.70;99.90;;;;;;6302714;22;20388;-77
2022/11/29 03:58:30;;;;;;;10.70;8.70;;;5.40;99.90;;;;;;6302392;22;20393;-75
2022/11/29 04:01:35;;;;;;;11.37;8.50;;;5.20;99.90;;;;;;6302336;22;20931;-76
2022/11/29 04:04:32;;;;;;;12.90;8.43;;;5.70;99.90;;;;;;6302634;22;20446;-76
2022/11/29 04:07:09;;;;;;;9.87;8.30;;;5.50;99.90;;;;;;6302843;22;20393;-76
2022/11/29 04:09:57;;;;;;;10.00;8.40;;;5.30;99.90;;;;;;6303157;22;20467;-77
2022/11/29 04:12:46;;;;;;;9.20;7.43;;;5.40;99.90;;;;;;6302615;22;20866;-78
2022/11/29 04:15:47;;;;;;;11.43;7.10;;;5.80;99.90;;;;;;6302480;22;20413;-77
2022/11/29 04:18:50;;;;;;;9.30;6.63;;;5.50;99.90;;;;;;6301917;22;20385;-77
2022/11/29 04:21:31;;;;;;;9.03;6.53;;;5.50;99.90;;;;;;6302285;22;20976;-77
2022/11/29 04:24:08;;;;;;;7.20;5.80;;;5.50;99.90;;;;;;6302419;22;20437;-75
2022/11/29 04:26:53;;;;;;;7.47;6.77;;;;;;;;;;6302479;22;20400;-76
2022/11/29 04:29:51;;;;;;;5.90;5.30;;;5.30;99.90;;;;;;6302285;22;20905;-78
2022/11/29 04:32:28;;;;;;;8.80;6.77;;;;;;;;;;6302293;22;20419;-76
2022/11/29 04:38:25;;;;;;;7.97;6.57;;;;;;;;;;6302998;22;20776;-79
2022/11/29 04:41:03;;;;;;;6.77;6.07;;;;;;;;;;6252707;22;20470;-79
2022/11/29 04:43:52;;;;;;;6.77;4.63;;;;;;;;;;6301988;22;20707;-79
2022/11/29 04:46:54;;;;;;;5.47;4.90;;;5.10;99.90;;;;;;6292511;22;20443;-78
2022/11/29 04:49:37;;;;;;;10.90;6.00;;;5.40;99.90;;;;;;6300475;22;20411;-77
2022/11/29 04:52:27;;;;;;;9.30;5.47;;;5.30;99.90;;;;;;6302355;22;20424;-77
2022/11/29 04:55:02;;;;;;;7.63;5.23;;;5.50;99.90;;;;;;6308812;22;20389;-77
2022/11/29 04:57:34;;;;;;;7.20;4.63;;;;;;;;;;6302482;22;20450;-76
2022/11/29 05:00:08;;;;;;;6.80;4.80;;;;;;;;;;6302176;22;20428;-77
2022/11/29 05:02:41;;;;;;;5.83;5.17;;;;;;;;;;6300563;22;20511;-78
2022/11/29 05:05:17;;;;;;;10.87;6.30;;;;;;;;;;6301567;22;20373;-75
2022/11/29 05:07:48;;;;;;;6.93;5.10;;;;;;;;;;6301704;22;20736;-76
2022/11/29 05:10:23;;;;;;;8.17;5.23;;;;;;;;;;6301504;22;20809;-76
2022/11/29 05:12:54;;;;;;;7.87;4.83;;;;;;;;;;6301800;22;20415;-75
2022/11/29 05:15:58;;;;;;;5.83;4.60;;;5.30;99.90;;;;;;6301462;22;20404;-76
2022/11/29 05:18:53;;;;;;;5.57;4.60;;;5.40;99.90;;;;;;6301920;22;20393;-76
2022/11/29 05:21:30;;;;;;;4.17;3.77;;;6.00;99.90;;;;;;6301606;22;20385;-73
2022/11/29 05:24:10;;;;;;;4.30;3.53;;;5.80;99.90;;;;;;6301181;22;20470;-75
2022/11/29 05:26:47;;;;;;;5.47;4.23;;;6.10;99.90;;;;;;6301286;22;20389;-76
2022/11/29 05:29:23;;;;;;;6.50;4.67;;;6.10;99.90;;;;;;6301497;22;20462;-74
2022/11/29 05:32:14;;;;;;;3.83;3.43;;;5.40;99.90;;;;;;6301116;22;20858;-75
2022/11/29 05:34:52;;;;;;;4.73;3.90;;;5.60;99.90;;;;;;6301406;22;20416;-74
2022/11/29 05:37:30;;;;;;;8.57;5.43;;;5.60;99.90;;;;;;6300954;22;20806;-77
2022/11/29 05:40:24;;;;;;;4.17;3.47;;;5.70;99.90;;;;;;6300131;22;20471;-77
2022/11/29 05:43:12;;;;;;;6.27;5.13;;;5.60;99.90;;;;;;6289309;22;21043;-79
2022/11/29 05:45:47;;;;;;;5.60;3.83;;;5.80;99.90;;;;;;6299905;22;20433;-78
2022/11/29 05:48:21;;;;;;;7.40;4.00;;;5.80;99.90;;;;;;6300271;22;20396;-77
2022/11/29 05:51:09;;;;;;;5.40;4.60;;;5.80;99.90;;;;;;6299255;22;20388;-78
2022/11/29 05:53:46;;;;;;;4.30;3.27;;;5.50;99.90;;;;;;6299526;22;20443;-83
2022/11/29 05:56:22;;;;;;;4.27;3.87;;;5.20;99.90;;;;;;6298886;22;20768;-79
2022/11/29 05:58:52;;;;;;;7.20;5.13;;;5.60;99.90;;;;;;6299587;22;20861;-77
2022/11/29 06:01:23;;;;;;;7.70;4.03;;;5.60;99.90;;;;;;6300593;22;20385;-88
2022/11/29 06:03:59;;;;;;;5.20;4.43;;;5.10;99.90;;;;;;6301135;22;20392;-78
2022/11/29 06:09:26;;;;;;;8.97;5.07;;;5.10;99.90;;;;;;6299867;22;20425;-76
2022/11/29 06:12:01;;;;;;;5.23;4.10;;;5.00;99.90;;;;;;6273790;22;20478;-75
2022/11/29 06:14:52;;;;;;;5.30;4.13;;;5.20;99.90;;;;;;6299629;22;20461;-75
2022/11/29 06:17:39;;;;;;;7.60;5.27;;;5.10;99.90;;;;;;6242591;22;20405;-76
2022/11/29 06:20:31;;;;;;;6.60;5.30;;;4.90;99.90;;;;;;6299032;22;20448;-76
2022/11/29 06:23:27;;;;;;;7.93;4.63;;;5.50;99.90;;;;;;6298996;22;20385;-75
2022/11/29 06:26:08;;;;;;;4.70;4.17;;;5.50;99.90;;;;;;6287091;22;20412;-77
2022/11/29 06:28:50;;;;;;;5.80;4.17;;;5.50;99.90;;;;;;6298942;22;20384;-75
2022/11/29 06:31:23;;;;;;;4.90;4.10;;;5.80;99.90;;;;;;6299337;22;20392;-76
2022/11/29 06:33:58;;;;;;;6.30;4.30;;;5.20;99.90;;;;;;6296445;22;20830;-74
2022/11/29 06:36:31;;;;;;;6.37;4.67;;;5.30;99.90;;;;;;6300286;22;20554;-74
2022/11/29 06:39:00;;;;;;;4.70;4.17;;;5.20;99.90;;;;;;6299821;22;20413;-73
2022/11/29 06:41:27;;;;;;;5.47;3.73;;;5.20;99.90;;;;;;6298898;22;21281;-73
2022/11/29 06:44:03;;;;;;;4.83;4.27;;;5.60;99.90;;;;;;6299195;22;20816;-73
2022/11/29 06:46:44;;;;;;;6.17;4.47;;;5.30;99.90;;;;;;6298851;22;20752;-74
2022/11/29 06:49:16;;;;;;;3.73;3.07;;;5.40;99.90;;;;;;6273422;22;20430;-73
2022/11/29 06:51:51;;;;;;;5.13;4.07;;;5.40;99.90;;;;;;6299762;22;20393;-74
2022/11/29 06:54:42;;;;;;;4.03;3.60;;;5.40;99.90;;;;;;6299555;22;20388;-73
2022/11/29 06:57:16;;;;;;;4.87;4.00;;;5.40;99.90;;;;;;6299345;22;20578;-74
2022/11/29 06:59:58;;;;;;;7.60;6.30;;;5.70;99.90;;;;;;6299462;22;20962;-73
2022/11/29 07:02:53;;;;;;;4.90;4.27;;;5.80;99.90;;;;;;6300425;22;20647;-73
2022/11/29 07:05:27;;;;;;;6.37;4.50;;;5.50;99.90;;;;;;6243080;22;20411;-75
2022/11/29 07:07:56;;;;;;;5.37;4.53;;;5.20;99.90;;;;;;6291870;22;20964;-74
2022/11/29 07:10:26;;;;;;;6.30;5.00;;;5.20;99.90;;;;;;6311378;22;20473;-73
2022/11/29 07:12:54;;;;;;;5.53;4.50;;;5.20;99.90;;;;;;6299966;22;20408;-73
2022/11/29 07:15:22;;;;;;;7.10;4.60;;;5.30;99.90;;;;;;6299478;22;20408;-74
2022/11/29 07:18:20;;;;;;;5.13;4.50;;;5.40;99.90;;;;;;6299588;22;20409;-74
2022/11/29 07:20:59;;;;;;;8.50;5.60;;;5.20;99.90;;;;;;6299705;22;20459;-73
2022/11/29 07:23:33;;;;;;;4.43;4.00;;;5.20;99.90;;;;;;6298961;22;20757;-74
2022/11/29 07:26:14;;;;;;;4.73;4.23;;;5.20;99.90;;;;;;6300193;22;20443;-73
2022/11/29 07:28:59;;;;;;;5.33;4.50;;;5.20;99.90;;;;;;6300112;22;20392;-73
2022/11/29 07:31:41;;;;;;;5.07;3.90;;;5.50;99.90;;;;;;6299266;22;20484;-74
2022/11/29 07:34:25;;;;;;;3.90;3.50;;;5.80;99.90;;;;;;6299370;22;21032;-75
2022/11/29 07:37:01;;;;;;;5.60;3.57;;;5.80;99.90;;;;;;6299461;22;20478;-74
2022/11/29 07:39:38;;;;;;;5.70;4.00;;;5.60;99.90;;;;;;6298668;22;20416;-73
2022/11/29 07:42:16;;;;;;;7.37;4.60;;;5.00;99.90;;;;;;6299683;22;20392;-75
2022/11/29 07:44:50;;;;;;;5.17;4.00;;;5.30;99.90;;;;;;6299560;22;20392;-73
2022/11/29 07:47:17;;;;;;;6.60;4.67;;;5.90;99.90;;;;;;6299638;22;20401;-73
2022/11/29 07:49:46;;;;;;;8.27;5.37;;;5.20;99.90;;;;;;6299692;22;20404;-73
2022/11/29 07:52:30;;;;;;;4.33;3.80;;;5.60;99.90;;;;;;6301543;22;20491;-74
2022/11/29 07:54:57;;;;;;;3.87;3.50;;;5.40;99.90;;;;;;6301055;22;20439;-75
2022/11/29 07:57:25;;;;;;;7.57;4.57;;;5.90;99.90;;;;;;6301219;22;20408;-73
2022/11/29 07:59:52;;;;;;;5.23;4.20;;;5.30;99.90;;;;;;6300651;22;20526;-74
2022/11/29 08:02:26;;;;;;;6.20;4.53;;;5.50;99.90;;;;;;6300938;22;20724;-74
2022/11/29 08:04:53;;;;;;;7.03;4.60;;;5.40;99.90;;;;;;6301966;22;20928;-74
2022/11/29 08:07:20;;;;;;;3.97;3.37;;;5.40;99.90;;;;;;6301890;22;20792;-74
2022/11/29 08:09:49;;;;;;;5.20;4.30;;;5.60;99.90;;;;;;6301707;22;20425;-73
2022/11/29 08:12:16;;;;;;;5.50;4.10;;;5.50;99.90;;;;;;6301810;22;20550;-74
2022/11/29 08:14:44;;;;;;;4.00;3.70;;;5.50;99.90;;;;;;6301315;22;20416;-73
2022/11/29 08:17:13;;;;;;;3.93;3.53;;;5.50;99.90;;;;;;6301272;22;20466;-74
2022/11/29 08:19:40;;;;;;;8.43;3.37;;;5.50;99.90;;;;;;6301559;22;20427;-74
2022/11/29 08:22:07;;;;;;;6.80;3.40;;;6.00;99.90;;;;;;6301557;22;20723;-74
2022/11/29 08:24:34;;;;;;;5.33;4.27;;;6.00;99.90;;;;;;6301275;22;20479;-74
2022/11/29 08:27:01;;;;;;;4.70;4.00;;;5.70;99.90;;;;;;6301534;22;20946;-74
2022/11/29 08:29:28;;;;;;;4.03;3.20;;;5.80;99.90;;;;;;6301141;22;20441;-72
2022/11/29 08:31:56;;;;;;;3.63;3.33;;;5.60;99.90;;;;;;6301446;22;20409;-74
2022/11/29 08:34:24;;;;;;;4.63;3.20;;;5.80;99.90;;;;;;6301513;22;20440;-73
2022/11/29 08:36:54;;;;;;;5.27;4.20;;;5.80;99.90;;;;;;6300649;22;20812;-73
2022/11/29 08:39:21;;;;;;;4.13;3.27;;;5.70;99.90;;;;;;6301823;22;20487;-72
2022/11/29 08:41:49;;;;;;;4.17;3.57;;;5.90;99.90;;;;;;6300766;22;20936;-74
2022/11/29 08:44:17;;;;;;;6.50;4.20;;;6.20;99.90;;;;;;6301422;22;20432;-75
2022/11/29 08:54:52;;;;;;;4.00;3.60;;;6.40;99.90;;;;;;6232951;22;20401;-74
2022/11/29 08:57:19;;;;;;;3.87;3.50;;;5.90;99.90;;;;;;6301402;22;20443;-75
2022/11/29 08:59:46;;;;;;;5.50;3.53;;;5.70;99.90;;;;;;6301425;22;20440;-74
2022/11/29 09:02:13;;;;;;;5.67;3.03;;;5.70;99.90;;;;;;6300354;22;20452;-75
2022/11/29 09:04:41;;;;;;;3.67;3.30;;;6.00;99.90;;;;;;6301472;22;20483;-74
2022/11/29 09:07:08;;;;;;;6.70;2.63;;;5.80;99.90;;;;;;6301207;22;20588;-74
2022/11/29 09:09:35;;;;;;;3.50;2.70;;;5.90;99.90;;;;;;6301482;22;20425;-74
2022/11/29 09:12:06;;;;;;;3.40;2.23;;;5.80;99.90;;;;;;6301122;22;20436;-73
2022/11/29 09:14:33;;;;;;;2.90;2.60;;;6.00;99.90;;;;;;6301080;22;20412;-74
2022/11/29 09:17:00;;;;;;;2.67;2.20;;;5.80;99.90;;;;;;6301490;22;20447;-74
2022/11/29 09:19:27;;;;;;;3.70;2.37;;;5.70;99.90;;;;;;6302766;22;20412;-75
2022/11/29 09:21:55;;;;;;;4.90;2.07;;;5.90;99.90;;;;;;6300730;22;20472;-74
2022/11/29 09:24:22;;;;;;;2.47;2.27;;;5.80;99.90;;;;;;6300956;22;20433;-74
2022/11/29 09:26:49;;;;;;;4.20;2.47;;;5.60;99.90;;;;;;6300610;22;21001;-75
2022/11/29 09:29:17;;;;;;;3.33;2.80;;;5.70;99.90;;;;;;6301071;22;20767;-75
2022/11/29 09:31:44;;;;;;;3.67;2.70;;;5.90;99.90;;;;;;6301245;22;20746;-73
2022/11/29 09:34:12;;;;;;;3.33;2.97;;;5.80;99.90;;;;;;6300191;22;20435;-74
2022/11/29 09:36:39;;;;;;;3.40;2.60;;;6.10;99.90;;;;;;6300761;22;20451;-73
2022/11/29 09:39:08;;;;;;;6.13;3.80;;;5.80;99.90;;;;;;6300873;22;20413;-73
2022/11/29 09:41:59;;;;;;;3.03;2.83;;;6.00;99.90;;;;;;6300966;22;20472;-73
2022/11/29 09:44:38;;;;;;;2.83;2.63;;;5.80;99.90;;;;;;6275471;22;20419;-74
2022/11/29 09:47:19;;;;;;;3.50;2.60;;;6.10;99.90;;;;;;6300582;22;20423;-74
2022/11/29 09:50:01;;;;;;;4.27;3.27;;;6.20;99.90;;;;;;6300668;22;20427;-74
2022/11/29 09:52:41;;;;;;;3.50;3.03;;;5.90;99.90;;;;;;6300098;22;20393;-74
2022/11/29 09:55:30;;;;;;;6.20;2.97;;;5.90;99.90;;;;;;6301108;22;20396;-73
2022/11/29 09:58:02;;;;;;;4.60;3.37;;;6.20;99.90;;;;;;6301271;22;20416;-72
2022/11/29 10:00:52;;;;;;;6.27;3.27;;;5.90;99.90;;;;;;6300058;22;20436;-73
2022/11/29 10:03:24;;;;;;;3.37;3.07;;;6.30;99.90;;;;;;6300031;22;20784;-72
2022/11/29 10:05:57;;;;;;;3.50;3.10;;;6.20;99.90;;;;;;6300540;22;20396;-73
2022/11/29 10:08:29;;;;;;;4.30;2.80;;;6.10;99.90;;;;;;6300342;22;20686;-73
2022/11/29 10:11:05;;;;;;;3.00;2.33;;;6.40;99.90;;;;;;6300236;22;20964;-73
2022/11/29 10:13:35;;;;;;;2.77;2.50;;;6.20;99.90;;;;;;6299737;22;20432;-75
2022/11/29 10:16:10;;;;;;;4.53;3.40;;;6.50;99.90;;;;;;6300302;22;20419;-74
2022/11/29 10:18:41;;;;;;;3.53;3.00;;;6.20;99.90;;;;;;6299889;22;20449;-74
2022/11/29 10:21:14;;;;;;;3.33;2.60;;;6.30;99.90;;;;;;6299522;22;20519;-74
2022/11/29 10:23:45;;;;;;;3.10;2.40;;;6.00;99.90;;;;;;6300310;22;20765;-74
2022/11/29 10:26:16;;;;;;;2.67;2.10;;;6.10;99.90;;;;;;6299167;22;20405;-73
2022/11/29 10:28:47;;;;;;;3.30;2.87;;;6.20;99.90;;;;;;6300475;22;20397;-73
2022/11/29 10:31:20;;;;;;;2.93;2.73;;;6.40;99.90;;;;;;6300352;22;20396;-74
2022/11/29 10:33:48;;;;;;;4.23;2.77;;;5.90;99.90;;;;;;6300280;22;20393;-74
2022/11/29 10:36:22;;;;;;;2.70;2.33;;;5.90;99.90;;;;;;6300718;22;20432;-74
2022/11/29 10:38:51;;;;;;;3.17;2.87;;;6.20;99.90;;;;;;6299977;22;20389;-73
2022/11/29 10:41:23;;;;;;;2.77;2.43;;;6.00;99.90;;;;;;6299795;22;20505;-74
2022/11/29 10:43:51;;;;;;;6.77;3.63;;;6.20;99.90;;;;;;6299738;22;20446;-73
2022/11/29 10:46:27;;;;;;;3.10;2.83;;;6.20;99.90;;;;;;6299468;22;20483;-75
2022/11/29 10:48:54;;;;;;;4.77;2.20;;;6.80;99.90;;;;;;6299572;22;20443;-76
2022/11/29 10:51:29;;;;;;;3.47;2.47;;;6.40;99.90;;;;;;6299913;22;20742;-74
2022/11/29 10:54:03;;;;;;;6.30;2.70;;;6.10;99.90;;;;;;6300697;22;20388;-74
2022/11/29 10:56:36;;;;;;;3.80;2.80;;;6.30;99.90;;;;;;6299707;22;20388;-73
2022/11/29 10:59:08;;;;;;;6.80;3.10;;;6.30;99.90;;;;;;6300645;22;20470;-73
2022/11/29 11:01:38;;;;;;;6.73;3.57;;;6.30;99.90;;;;;;6300114;22;20429;-73
2022/11/29 11:04:09;;;;;;;5.00;3.27;;;6.50;99.90;;;;;;6300261;22;20458;-72
2022/11/29 11:06:45;;;;;;;3.90;3.10;;;6.50;99.90;;;;;;6299996;22;20733;-73
2022/11/29 11:09:19;;;;;;;3.57;2.60;;;6.60;99.90;;;;;;6299690;22;20404;-72
2022/11/29 11:11:53;;;;;;;3.90;2.93;;;6.70;99.90;;;;;;6299981;22;20648;-73
2022/11/29 11:14:23;;;;;;;3.97;2.83;;;6.70;99.90;;;;;;6299914;22;20471;-72
2022/11/29 11:16:50;;;;;;;2.40;2.20;;;6.60;99.90;;;;;;6300370;22;20443;-72
2022/11/29 11:19:29;;;;;;;3.97;3.03;;;7.20;99.90;;;;;;6309418;22;20409;-73
2022/11/29 11:21:57;;;;;;;2.47;2.27;;;7.10;99.90;;;;;;6316232;22;20462;-73
2022/11/29 11:24:26;;;;;;;3.20;1.93;;;6.70;99.90;;;;;;6300104;22;20463;-74
2022/11/29 11:26:55;;;;;;;2.80;2.60;;;6.60;99.90;;;;;;6301331;22;20408;-73
2022/11/29 11:29:26;;;;;;;4.33;2.43;;;6.50;99.90;;;;;;6301733;22;20495;-73
2022/11/29 11:31:55;;;;;;;3.93;2.80;;;6.80;99.90;;;;;;6301489;22;20424;-71
2022/11/29 11:34:28;;;;;;;2.60;2.40;;;6.60;99.90;;;;;;6301871;22;20444;-71
2022/11/29 11:37:17;;;;;;;3.00;2.47;;;6.70;99.90;;;;;;6301803;22;20427;-73
2022/11/29 11:39:46;;;;;;;2.90;2.10;;;6.60;99.90;;;;;;6301614;22;20473;-74
2022/11/29 11:45:02;;;;;;;2.70;2.50;;;6.60;99.90;;;;;;6302075;22;20392;-72
2022/11/29 11:47:32;;;;;;;2.50;2.30;;;6.70;99.90;;;;;;6301171;22;20668;-72
2022/11/29 11:50:08;;;;;;;2.90;2.70;;;6.90;99.90;;;;;;6301713;22;20427;-72
2022/11/29 11:52:40;;;;;;;2.63;2.43;;;6.80;99.90;;;;;;6301271;22;20420;-73
2022/11/29 11:55:27;;;;;;;2.47;2.20;;;6.70;99.90;;;;;;6302079;22;20420;-71
2022/11/29 11:58:05;;;;;;;2.90;2.60;;;7.20;99.90;;;;;;6301982;22;20438;-71
2022/11/29 12:00:42;;;;;;;2.30;2.10;;;6.80;99.90;;;;;;6301523;22;20412;-71
2022/11/29 12:03:31;;;;;;;4.77;3.77;;;6.60;99.90;;;;;;6301072;22;20419;-72
2022/11/29 12:06:14;;;;;;;4.20;2.70;;;6.40;99.90;;;;;;6297107;22;20436;-71
2022/11/29 12:08:52;;;;;;;3.40;2.30;;;6.70;99.90;;;;;;6302271;22;20462;-71
2022/11/29 12:11:27;;;;;;;2.37;2.17;;;6.80;99.90;;;;;;6301395;22;20459;-71
2022/11/29 12:14:06;;;;;;;2.63;2.43;;;6.90;99.90;;;;;;6302040;22;20401;-71
2022/11/29 12:16:41;;;;;;;4.00;2.53;;;7.00;99.90;;;;;;6301694;22;20474;-71
2022/11/29 12:19:22;;;;;;;2.40;2.20;;;7.00;99.90;;;;;;6301023;22;20485;-73
2022/11/29 12:21:55;;;;;;;2.90;2.53;;;6.90;99.90;;;;;;6300430;22;20443;-72
2022/11/29 12:24:29;;;;;;;2.60;2.20;;;7.20;99.90;;;;;;6301215;22;20436;-70
2022/11/29 12:27:02;;;;;;;3.93;2.50;;;7.00;99.90;;;;;;6301581;22;20413;-70
2022/11/29 12:29:33;;;;;;;3.47;2.50;;;7.30;99.90;;;;;;6300862;22;20416;-71
2022/11/29 12:32:13;;;;;;;4.90;4.20;;;7.30;99.90;;;;;;6301339;22;20732;-70
2022/11/29 12:34:59;;;;;;;4.63;3.23;;;7.30;99.90;;;;;;6301149;22;20795;-71
2022/11/29 12:40:20;;;;;;;3.37;2.00;;;7.40;99.90;;;;;;6300082;22;20404;-70
2022/11/29 12:42:57;;;;;;;2.50;1.93;;;7.30;99.90;;;;;;6301293;22;20930;-70
2022/11/29 12:45:39;;;;;;;2.27;1.60;;;7.60;99.90;;;;;;6301845;22;20446;-70
2022/11/29 12:48:17;;;;;;;2.40;2.20;;;7.40;99.90;;;;;;6301416;22;20393;-71
2022/11/29 12:50:55;;;;;;;2.80;2.60;;;7.10;99.90;;;;;;6300768;22;20745;-70
2022/11/29 12:53:36;;;;;;;3.13;2.60;;;7.40;99.90;;;;;;6301183;22;20404;-69
2022/11/29 12:56:13;;;;;;;4.07;2.10;;;7.10;99.90;;;;;;6301529;22;20393;-69
2022/11/29 12:58:53;;;;;;;2.70;2.50;;;7.10;99.90;;;;;;6301595;22;20424;-70
2022/11/29 13:01:29;;;;;;;2.17;1.90;;;7.20;99.90;;;;;;6300701;22;20452;-72
2022/11/29 13:04:05;;;;;;;3.73;2.17;;;7.20;99.90;;;;;;6301251;22;20737;-70
2022/11/29 13:06:40;;;;;;;1.80;1.70;;;7.20;99.90;;;;;;6300892;22;20396;-69
2022/11/29 13:09:33;;;;;;;4.23;2.47;;;7.00;99.90;;;;;;6304045;22;20427;-70
2022/11/29 13:12:09;;;;;;;7.70;3.30;;;7.00;99.90;;;;;;6302823;22;20392;-70
2022/11/29 13:14:48;;;;;;;2.90;2.70;;;7.00;99.90;;;;;;6301562;22;20446;-72
2022/11/29 13:17:30;;;;;;;3.30;2.50;;;7.20;99.90;;;;;;6301946;22;20427;-70
2022/11/29 13:20:02;;;;;;;5.50;2.50;;;7.40;99.90;;;;;;6299542;22;20393;-69
2022/11/29 13:22:36;;;;;;;3.00;2.07;;;6.80;99.90;;;;;;6299946;22;20925;-71
2022/11/29 13:25:11;;;;;;;3.87;2.63;;;7.00;99.90;;;;;;6300127;22;20468;-71
2022/11/29 13:27:45;;;;;;;2.40;2.00;;;6.80;99.90;;;;;;6299796;22;20419;-71
2022/11/29 13:30:14;;;;;;;3.27;2.23;;;6.90;99.90;;;;;;6300264;22;20405;-72
2022/11/29 13:32:49;;;;;;;3.83;2.20;;;6.80;99.90;;;;;;6299011;22;20404;-72
2022/11/29 13:35:22;;;;;;;2.60;2.00;;;6.80;99.90;;;;;;6299775;22;20431;-72
2022/11/29 13:37:54;;;;;;;2.40;2.10;;;6.80;99.90;;;;;;6300490;22;20401;-72
2022/11/29 13:40:30;;;;;;;2.27;2.10;;;7.10;99.90;;;;;;6300418;22;20967;-71
2022/11/29 13:43:03;;;;;;;3.20;2.00;;;7.10;99.90;;;;;;6299966;22;20994;-72
2022/11/29 13:45:37;;;;;;;3.27;2.20;;;7.00;99.90;;;;;;6299975;22;20397;-72
2022/11/29 13:48:22;;;;;;;3.17;2.40;;;6.90;99.90;;;;;;6299684;22;20392;-71
2022/11/29 13:50:50;;;;;;;3.60;1.97;;;7.00;99.90;;;;;;6300098;22;20443;-72
2022/11/29 13:53:19;;;;;;;3.70;2.90;;;7.10;99.90;;;;;;6300354;22;20701;-72
2022/11/29 13:55:48;;;;;;;5.03;3.17;;;6.90;99.90;;;;;;6300472;22;20408;-72
2022/11/29 13:58:37;;;;;;;2.50;2.30;;;7.50;99.90;;;;;;6299916;22;20414;-71
2022/11/29 14:01:08;;;;;;;3.27;3.00;;;6.90;99.90;;;;;;6285112;22;20458;-72
2022/11/29 14:03:46;;;;;;;5.20;3.53;;;6.70;99.90;;;;;;6298770;22;20432;-72